Time;durP1;ratioP1;P1;durP2;ratioP2;P2;SDS_P1;SDS_P2;PMS_P1;PMS_P2;Temp;Humidity;BMP_temperature;BMP_pressure;BME280_temperature;BME280_humidity;BME280_pressure;Samples;Min_cycle;Max_cycle;Signal;HPM_P1;HPM_P2
2022/10/19 00:02:02;;;;;;;11.75;5.68;;;12.60;99.90;;;;;;5033761;28;20105;-78
2022/10/19 00:04:28;;;;;;;10.70;6.45;;;12.60;99.90;;;;;;5033866;28;20029;-78
2022/10/19 00:06:54;;;;;;;11.55;6.32;;;12.60;99.90;;;;;;5033753;28;20048;-78
2022/10/19 00:09:19;;;;;;;10.57;6.35;;;12.60;99.90;;;;;;5033729;28;20031;-78
2022/10/19 00:11:47;;;;;;;11.50;6.85;;;12.60;99.90;;;;;;5033857;28;20036;-78
2022/10/19 00:14:16;;;;;;;12.48;6.80;;;12.60;99.90;;;;;;5033158;28;20466;-82
2022/10/19 00:16:43;;;;;;;17.08;6.97;;;12.60;99.90;;;;;;5033119;28;20028;-82
2022/10/19 00:19:13;;;;;;;8.75;6.40;;;12.60;99.90;;;;;;5033083;28;20075;-82
2022/10/19 00:21:40;;;;;;;12.65;7.00;;;12.60;99.90;;;;;;5033167;28;20033;-82
2022/10/19 00:24:06;;;;;;;12.10;6.32;;;12.60;99.90;;;;;;5032891;28;20026;-82
2022/10/19 00:26:32;;;;;;;11.68;6.05;;;12.70;99.90;;;;;;5033104;28;20366;-82
2022/10/19 00:28:58;;;;;;;11.07;5.65;;;12.70;99.90;;;;;;5032814;28;20029;-82
2022/10/19 00:31:24;;;;;;;11.45;5.65;;;12.70;99.90;;;;;;5033101;28;20021;-82
2022/10/19 00:33:50;;;;;;;12.52;5.97;;;12.70;99.90;;;;;;5032724;28;20022;-82
2022/10/19 00:36:25;;;;;;;13.80;6.10;;;12.70;99.90;;;;;;5032882;28;20347;-82
2022/10/19 00:38:51;;;;;;;8.98;5.75;;;12.70;99.90;;;;;;5033231;28;20387;-82
2022/10/19 00:41:19;;;;;;;8.63;6.55;;;12.70;99.90;;;;;;5032495;28;20030;-81
2022/10/19 00:44:05;;;;;;;8.90;6.03;;;12.70;99.90;;;;;;5032151;28;20434;-82
2022/10/19 00:46:34;;;;;;;9.63;6.22;;;12.70;99.90;;;;;;5033104;28;20040;-82
2022/10/19 00:49:23;;;;;;;13.77;6.63;;;12.80;99.90;;;;;;5032810;28;20470;-82
2022/10/19 00:52:01;;;;;;;11.93;7.18;;;12.80;99.90;;;;;;5032444;28;20025;-82
2022/10/19 00:54:30;;;;;;;17.83;7.50;;;12.80;99.90;;;;;;5029302;28;20034;-82
2022/10/19 00:56:57;;;;;;;10.52;6.32;;;12.90;99.90;;;;;;5029302;28;20367;-82
2022/10/19 00:59:25;;;;;;;9.95;6.68;;;12.80;99.90;;;;;;5032839;28;20108;-82
2022/10/19 01:01:51;;;;;;;12.65;8.35;;;12.80;99.90;;;;;;5032946;28;20030;-82
2022/10/19 01:04:20;;;;;;;10.27;6.65;;;12.80;99.90;;;;;;5030583;28;20029;-82
2022/10/19 01:06:46;;;;;;;9.82;6.13;;;12.80;99.90;;;;;;5032859;28;20021;-82
2022/10/19 01:09:12;;;;;;;9.38;5.80;;;12.90;99.90;;;;;;5031107;28;20113;-82
2022/10/19 01:11:59;;;;;;;9.35;5.75;;;12.80;99.90;;;;;;5028514;28;20022;-82
2022/10/19 01:15:02;;;;;;;9.50;6.15;;;12.80;99.90;;;;;;5032523;28;20374;-82
2022/10/19 01:17:30;;;;;;;10.50;7.32;;;12.80;99.90;;;;;;5031322;28;20498;-82
2022/10/19 01:20:15;;;;;;;14.15;7.13;;;12.80;99.90;;;;;;5032941;28;20061;-82
2022/10/19 01:23:02;;;;;;;13.05;7.63;;;12.80;99.90;;;;;;5032316;28;20093;-82
2022/10/19 01:25:58;;;;;;;13.43;7.85;;;12.80;99.90;;;;;;5032633;28;20168;-82
2022/10/19 01:28:48;;;;;;;11.07;7.45;;;12.80;99.90;;;;;;5031374;28;20040;-82
2022/10/19 01:31:19;;;;;;;21.40;8.05;;;12.80;99.90;;;;;;5026672;28;20049;-82
2022/10/19 01:34:24;;;;;;;11.07;7.50;;;12.90;99.90;;;;;;5032509;28;20022;-82
2022/10/19 01:37:14;;;;;;;11.52;7.82;;;12.90;99.90;;;;;;5032454;28;20043;-82
2022/10/19 01:39:48;;;;;;;11.32;7.55;;;12.90;99.90;;;;;;5029765;28;20497;-78
2022/10/19 01:42:44;;;;;;;13.15;7.43;;;12.90;99.90;;;;;;5033298;28;20022;-78
2022/10/19 01:45:18;;;;;;;11.65;6.97;;;13.00;99.90;;;;;;5013671;28;20389;-78
2022/10/19 01:48:00;;;;;;;10.63;6.70;;;13.00;99.90;;;;;;5032732;28;20029;-78
2022/10/19 01:50:28;;;;;;;8.75;6.72;;;13.00;99.90;;;;;;5032856;28;20378;-78
2022/10/19 01:52:55;;;;;;;9.40;7.40;;;13.00;99.90;;;;;;5032611;28;20576;-78
2022/10/19 01:55:23;;;;;;;10.40;7.05;;;13.00;99.90;;;;;;5033664;28;20079;-78
2022/10/19 01:57:57;;;;;;;9.30;7.28;;;13.10;99.90;;;;;;5035146;28;20041;-79
2022/10/19 02:00:24;;;;;;;12.00;7.93;;;13.10;99.90;;;;;;5036260;28;20075;-78
2022/10/19 02:02:53;;;;;;;10.55;6.80;;;13.10;99.90;;;;;;5035981;28;20041;-78
2022/10/19 02:05:22;;;;;;;11.38;7.32;;;13.10;99.90;;;;;;5035654;28;20033;-78
2022/10/19 02:07:53;;;;;;;10.55;7.28;;;13.20;99.90;;;;;;5036291;28;20036;-78
2022/10/19 02:10:20;;;;;;;12.32;7.18;;;13.20;99.90;;;;;;5036009;28;20475;-78
2022/10/19 02:12:46;;;;;;;12.18;7.43;;;13.10;99.90;;;;;;5036353;28;20028;-78
2022/10/19 02:15:17;;;;;;;13.68;7.22;;;13.20;99.90;;;;;;5036576;28;20033;-78
2022/10/19 02:17:46;;;;;;;13.30;7.20;;;13.20;99.90;;;;;;5036100;28;20029;-78
2022/10/19 02:20:12;;;;;;;13.20;7.57;;;13.20;99.90;;;;;;5036216;28;20367;-78
2022/10/19 02:22:38;;;;;;;12.95;7.63;;;13.20;99.90;;;;;;5036192;28;20036;-78
2022/10/19 02:25:05;;;;;;;13.43;7.30;;;13.20;99.90;;;;;;5035968;28;20436;-78
2022/10/19 02:27:32;;;;;;;11.80;8.10;;;13.20;99.90;;;;;;5035828;28;20782;-78
2022/10/19 02:29:57;;;;;;;16.23;7.93;;;13.20;99.90;;;;;;5036105;28;20029;-78
2022/10/19 02:32:24;;;;;;;12.02;9.15;;;13.20;99.90;;;;;;5036018;28;20488;-79
2022/10/19 02:34:49;;;;;;;15.07;10.25;;;13.20;99.90;;;;;;5035930;28;20021;-79
2022/10/19 02:37:15;;;;;;;11.38;9.15;;;13.20;99.90;;;;;;5035617;28;20037;-78
2022/10/19 02:39:41;;;;;;;15.63;9.57;;;13.30;99.90;;;;;;5035433;28;20184;-79
2022/10/19 02:42:15;;;;;;;15.05;10.15;;;13.30;99.90;;;;;;5035708;28;20037;-78
2022/10/19 02:45:21;;;;;;;17.20;9.80;;;13.30;99.90;;;;;;5018505;28;20116;-78
2022/10/19 02:48:15;;;;;;;10.73;9.15;;;13.30;99.90;;;;;;5018373;28;20042;-79
2022/10/19 02:50:46;;;;;;;11.50;8.90;;;13.30;99.90;;;;;;5033356;28;20037;-78
2022/10/19 02:53:12;;;;;;;11.90;9.60;;;13.30;99.90;;;;;;5035439;28;20026;-78
2022/10/19 02:55:38;;;;;;;9.27;8.23;;;13.30;99.90;;;;;;5035324;28;20033;-78
2022/10/19 02:58:03;;;;;;;13.23;9.43;;;13.30;99.90;;;;;;5035218;28;20056;-79
2022/10/19 03:00:29;;;;;;;14.20;9.65;;;13.30;99.90;;;;;;5035233;28;20109;-79
2022/10/19 03:02:54;;;;;;;12.18;8.48;;;13.30;99.90;;;;;;5035429;28;20029;-79
2022/10/19 03:05:20;;;;;;;11.95;8.23;;;13.30;99.90;;;;;;5035121;28;20044;-78
2022/10/19 03:07:45;;;;;;;12.55;8.15;;;13.30;99.90;;;;;;5034629;28;20363;-79
2022/10/19 03:10:11;;;;;;;13.20;8.32;;;13.20;99.90;;;;;;5035158;28;20155;-79
2022/10/19 03:12:37;;;;;;;12.52;9.43;;;13.20;99.90;;;;;;5035237;28;20022;-79
2022/10/19 03:15:03;;;;;;;14.57;9.18;;;13.20;99.90;;;;;;5035059;28;20462;-79
2022/10/19 03:17:28;;;;;;;15.48;9.48;;;13.20;99.90;;;;;;5034867;28;20029;-79
2022/10/19 03:19:54;;;;;;;13.68;10.40;;;13.20;99.90;;;;;;5035022;28;20536;-79
2022/10/19 03:22:20;;;;;;;16.85;10.07;;;13.20;99.90;;;;;;5034742;28;20084;-79
2022/10/19 03:24:45;;;;;;;14.40;9.95;;;13.20;99.90;;;;;;5034778;28;20040;-79
2022/10/19 03:27:11;;;;;;;17.55;12.05;;;13.20;99.90;;;;;;5034536;28;20043;-79
2022/10/19 03:29:36;;;;;;;18.40;14.25;;;13.20;99.90;;;;;;5034838;28;20045;-79
2022/10/19 03:32:02;;;;;;;20.98;13.70;;;13.20;99.90;;;;;;5034848;28;20068;-79
2022/10/19 03:34:28;;;;;;;17.05;12.75;;;13.20;99.90;;;;;;5034937;28;20025;-79
2022/10/19 03:36:55;;;;;;;19.85;14.18;;;13.20;99.90;;;;;;5023122;28;20033;-79
2022/10/19 03:39:20;;;;;;;16.42;13.70;;;13.30;99.90;;;;;;5017967;28;20042;-79
2022/10/19 03:41:46;;;;;;;20.00;15.65;;;13.30;99.90;;;;;;5034518;28;20114;-79
2022/10/19 03:44:11;;;;;;;22.85;16.55;;;13.30;99.90;;;;;;5034450;28;20032;-79
2022/10/19 03:46:38;;;;;;;22.45;16.45;;;13.30;99.90;;;;;;5034350;28;20028;-79
2022/10/19 03:49:04;;;;;;;20.40;17.75;;;13.30;99.90;;;;;;5034211;28;20063;-79
2022/10/19 03:51:31;;;;;;;21.65;17.23;;;13.40;99.90;;;;;;5034357;28;20040;-79
2022/10/19 03:54:03;;;;;;;22.20;18.25;;;13.40;99.90;;;;;;5034706;28;20083;-79
2022/10/19 03:56:30;;;;;;;25.92;17.58;;;13.40;99.90;;;;;;5034381;28;20415;-78
2022/10/19 03:58:58;;;;;;;27.67;20.00;;;13.40;99.90;;;;;;5034156;28;20030;-79
2022/10/19 04:01:26;;;;;;;19.30;14.93;;;13.40;99.90;;;;;;5034379;28;20025;-79
2022/10/19 04:03:53;;;;;;;19.35;14.75;;;13.40;99.90;;;;;;5034064;28;20056;-79
2022/10/19 04:06:25;;;;;;;18.48;13.98;;;13.40;99.90;;;;;;5032760;28;20030;-79
2022/10/19 04:08:51;;;;;;;16.63;13.63;;;13.40;99.90;;;;;;5033899;28;20030;-79
2022/10/19 04:11:20;;;;;;;19.08;13.10;;;13.40;99.90;;;;;;5033874;28;20428;-79
2022/10/19 04:13:49;;;;;;;16.33;12.90;;;13.40;99.90;;;;;;5034340;28;20104;-79
2022/10/19 04:16:14;;;;;;;16.80;12.70;;;13.40;99.90;;;;;;5034214;28;20048;-79
2022/10/19 04:18:40;;;;;;;17.10;11.70;;;13.40;99.90;;;;;;5032976;28;20214;-79
2022/10/19 04:21:06;;;;;;;16.70;12.93;;;13.40;99.90;;;;;;5033783;28;20104;-79
2022/10/19 04:23:34;;;;;;;18.50;12.65;;;13.40;99.90;;;;;;5034251;28;20025;-79
2022/10/19 04:26:04;;;;;;;18.10;12.75;;;13.40;99.90;;;;;;5033793;28;20029;-79
2022/10/19 04:28:29;;;;;;;20.27;13.05;;;13.40;99.90;;;;;;5033698;28;20109;-79
2022/10/19 04:30:55;;;;;;;18.95;12.90;;;13.40;99.90;;;;;;5033690;28;20426;-79
2022/10/19 04:33:21;;;;;;;16.23;12.70;;;13.30;99.90;;;;;;5033854;28;20029;-79
2022/10/19 04:35:47;;;;;;;18.52;12.57;;;13.40;99.90;;;;;;5033502;28;20079;-79
2022/10/19 04:38:12;;;;;;;17.58;12.38;;;13.30;99.90;;;;;;5033852;28;20026;-79
2022/10/19 04:40:38;;;;;;;16.77;13.38;;;13.30;99.90;;;;;;5033447;28;20061;-79
2022/10/19 04:43:04;;;;;;;18.27;13.75;;;13.30;99.90;;;;;;5033746;28;20393;-79
2022/10/19 04:45:31;;;;;;;17.63;13.52;;;13.30;99.90;;;;;;5033537;28;20022;-79
2022/10/19 04:47:56;;;;;;;18.35;13.00;;;13.30;99.90;;;;;;5032881;28;20171;-79
2022/10/19 04:50:25;;;;;;;16.95;13.30;;;13.30;99.90;;;;;;5032849;28;20481;-79
2022/10/19 04:52:51;;;;;;;16.83;12.90;;;13.30;99.90;;;;;;5032471;28;20029;-79
2022/10/19 04:55:16;;;;;;;19.27;13.10;;;13.30;99.90;;;;;;5032659;28;20032;-80
2022/10/19 04:57:42;;;;;;;19.05;13.98;;;13.30;99.90;;;;;;5032628;28;20033;-79
2022/10/19 05:00:09;;;;;;;17.58;13.18;;;13.30;99.90;;;;;;5032328;28;20029;-79
2022/10/19 05:02:40;;;;;;;18.15;12.82;;;13.30;99.90;;;;;;5032397;28;20022;-79
2022/10/19 05:05:07;;;;;;;20.15;13.55;;;13.30;99.90;;;;;;5032092;28;20024;-79
2022/10/19 05:07:32;;;;;;;22.20;13.68;;;13.30;99.90;;;;;;5031992;28;20029;-79
2022/10/19 05:09:58;;;;;;;20.02;14.35;;;13.40;99.90;;;;;;5024166;28;20031;-79
2022/10/19 05:12:23;;;;;;;20.17;15.73;;;13.30;99.90;;;;;;5032646;28;20025;-79
2022/10/19 05:14:49;;;;;;;16.50;13.52;;;13.30;99.90;;;;;;5032131;28;20715;-79
2022/10/19 05:17:14;;;;;;;20.48;12.27;;;13.30;99.90;;;;;;5028743;28;20061;-79
2022/10/19 05:19:40;;;;;;;17.80;12.23;;;13.30;99.90;;;;;;5032183;28;20030;-79
2022/10/19 05:22:05;;;;;;;19.90;13.55;;;13.30;99.90;;;;;;5031604;28;20026;-79
2022/10/19 05:24:31;;;;;;;17.23;11.63;;;13.30;99.90;;;;;;5029159;28;20034;-79
2022/10/19 05:26:57;;;;;;;14.73;12.35;;;13.30;99.90;;;;;;5030783;28;20075;-79
2022/10/19 05:29:23;;;;;;;16.70;12.77;;;13.40;99.90;;;;;;5032584;28;20037;-83
2022/10/19 05:31:49;;;;;;;19.85;13.27;;;13.30;99.90;;;;;;5034650;28;20022;-83
2022/10/19 05:34:14;;;;;;;18.92;12.50;;;13.40;99.90;;;;;;5036035;28;20040;-83
2022/10/19 05:36:40;;;;;;;17.13;13.57;;;13.40;99.90;;;;;;5030534;28;20033;-83
2022/10/19 05:39:10;;;;;;;20.23;14.35;;;13.30;99.90;;;;;;5033850;28;20071;-83
2022/10/19 05:41:36;;;;;;;17.52;14.23;;;13.40;99.90;;;;;;5035231;28;20021;-83
2022/10/19 05:44:03;;;;;;;16.23;13.13;;;13.40;99.90;;;;;;5029416;28;20406;-83
2022/10/19 05:46:31;;;;;;;19.90;12.38;;;13.40;99.90;;;;;;5037265;28;20034;-83
2022/10/19 05:48:57;;;;;;;14.50;11.63;;;13.40;99.90;;;;;;5036427;28;20355;-83
2022/10/19 05:51:24;;;;;;;15.93;12.30;;;13.40;99.90;;;;;;5035724;28;20105;-83
2022/10/19 05:53:51;;;;;;;19.70;13.15;;;13.40;99.90;;;;;;5035581;28;20045;-83
2022/10/19 05:56:25;;;;;;;16.40;13.35;;;13.40;99.90;;;;;;5034824;28;20416;-79
2022/10/19 05:58:51;;;;;;;25.10;14.82;;;13.40;99.90;;;;;;5035509;28;20040;-79
2022/10/19 06:01:18;;;;;;;23.70;15.27;;;13.40;99.90;;;;;;5035798;28;20021;-79
2022/10/19 06:03:44;;;;;;;19.75;15.23;;;13.40;99.90;;;;;;5033981;28;20441;-79
2022/10/19 06:06:10;;;;;;;18.92;15.27;;;13.40;99.90;;;;;;5034578;28;20496;-80
2022/10/19 06:08:37;;;;;;;22.20;16.27;;;13.40;99.90;;;;;;5034406;28;20109;-80
2022/10/19 06:11:11;;;;;;;21.58;17.73;;;13.40;99.90;;;;;;5034468;28;20081;-80
2022/10/19 06:13:38;;;;;;;24.23;18.40;;;13.40;99.90;;;;;;5029903;28;20061;-80
2022/10/19 06:16:05;;;;;;;26.48;18.50;;;13.40;99.90;;;;;;5032724;28;20017;-82
2022/10/19 06:18:31;;;;;;;22.02;16.98;;;13.50;99.90;;;;;;5032239;28;20037;-79
2022/10/19 06:21:04;;;;;;;23.60;16.75;;;13.50;99.90;;;;;;5031584;28;20025;-79
2022/10/19 06:23:31;;;;;;;21.63;16.73;;;13.40;99.90;;;;;;5027647;28;20213;-79
2022/10/19 06:25:58;;;;;;;27.50;16.50;;;13.40;99.90;;;;;;5036803;28;20079;-79
2022/10/19 06:28:23;;;;;;;21.55;16.40;;;13.40;99.90;;;;;;5040489;28;20423;-79
2022/10/19 06:30:49;;;;;;;20.23;16.30;;;13.40;99.90;;;;;;5037825;28;20025;-79
2022/10/19 06:33:14;;;;;;;20.67;15.82;;;13.40;99.90;;;;;;5040419;28;20051;-79
2022/10/19 06:35:41;;;;;;;20.50;16.20;;;13.50;99.90;;;;;;5035152;28;20028;-79
2022/10/19 06:38:08;;;;;;;22.33;17.75;;;13.50;99.90;;;;;;5039010;28;20531;-79
2022/10/19 06:40:34;;;;;;;24.92;16.83;;;13.50;99.90;;;;;;5030776;28;20085;-79
2022/10/19 06:43:00;;;;;;;23.65;17.55;;;13.50;99.90;;;;;;5027223;28;20026;-79
2022/10/19 06:45:26;;;;;;;23.98;17.25;;;13.50;99.90;;;;;;5026959;28;20548;-79
2022/10/19 06:47:51;;;;;;;24.08;18.38;;;13.50;99.90;;;;;;5029338;28;20064;-84
2022/10/19 06:50:17;;;;;;;22.58;17.33;;;13.50;99.90;;;;;;5033828;28;20462;-81
2022/10/19 06:52:43;;;;;;;24.50;19.05;;;13.60;99.90;;;;;;5033718;28;20140;-81
2022/10/19 06:55:09;;;;;;;28.33;21.40;;;13.60;99.90;;;;;;5019731;28;20022;-81
2022/10/19 06:57:34;;;;;;;25.77;19.48;;;13.60;99.90;;;;;;5034171;28;20429;-81
2022/10/19 07:00:00;;;;;;;24.77;18.23;;;13.70;99.90;;;;;;5034100;28;20096;-81
2022/10/19 07:02:25;;;;;;;26.20;19.90;;;13.70;99.90;;;;;;5034043;28;20033;-81
2022/10/19 07:04:51;;;;;;;24.27;20.25;;;13.70;99.90;;;;;;5033965;28;20449;-81
2022/10/19 07:07:16;;;;;;;25.08;20.05;;;13.70;99.90;;;;;;5032781;28;20136;-81
2022/10/19 07:09:42;;;;;;;32.40;20.92;;;13.70;99.90;;;;;;5031316;28;20024;-81
2022/10/19 07:12:09;;;;;;;28.33;20.65;;;13.70;99.90;;;;;;5034371;28;20103;-81
2022/10/19 07:14:38;;;;;;;28.30;19.35;;;13.80;99.90;;;;;;5033975;28;20021;-81
2022/10/19 07:17:05;;;;;;;27.45;20.60;;;13.80;99.90;;;;;;5034183;28;20017;-81
2022/10/19 07:19:31;;;;;;;24.08;19.42;;;13.80;99.90;;;;;;5034462;28;20335;-81
2022/10/19 07:21:57;;;;;;;28.00;21.35;;;13.80;99.90;;;;;;5034090;28;20462;-81
2022/10/19 07:24:22;;;;;;;25.35;20.23;;;13.80;99.90;;;;;;5034027;28;20026;-81
2022/10/19 07:26:48;;;;;;;28.85;24.88;;;13.80;99.90;;;;;;5033901;28;20021;-81
2022/10/19 07:29:14;;;;;;;26.83;19.85;;;13.90;99.90;;;;;;5033620;28;20026;-81
2022/10/19 07:31:40;;;;;;;25.48;19.80;;;13.90;99.90;;;;;;5023866;28;20485;-81
2022/10/19 07:34:06;;;;;;;28.92;20.75;;;13.90;99.90;;;;;;5033844;28;20021;-81
2022/10/19 07:36:34;;;;;;;27.17;20.33;;;13.90;99.90;;;;;;5036617;28;20113;-81
2022/10/19 07:39:01;;;;;;;26.77;20.42;;;13.90;99.90;;;;;;5027658;28;20058;-81
2022/10/19 07:41:27;;;;;;;26.38;20.75;;;13.90;99.90;;;;;;5019617;28;20033;-81
2022/10/19 07:43:53;;;;;;;28.85;23.55;;;13.90;99.90;;;;;;5033819;28;20471;-81
2022/10/19 07:46:21;;;;;;;29.08;21.95;;;14.00;99.90;;;;;;5033900;28;20037;-81
2022/10/19 07:48:47;;;;;;;29.98;21.42;;;14.00;99.90;;;;;;5033973;28;20374;-81
2022/10/19 07:51:15;;;;;;;34.30;23.80;;;13.90;99.90;;;;;;5033933;28;20029;-81
2022/10/19 07:53:41;;;;;;;28.83;21.95;;;13.90;99.90;;;;;;5033755;28;20036;-81
2022/10/19 07:56:11;;;;;;;38.60;24.77;;;14.00;99.90;;;;;;5033341;28;20032;-89
2022/10/19 07:58:37;;;;;;;32.83;24.45;;;14.00;99.90;;;;;;5033700;28;20398;-81
2022/10/19 08:01:06;;;;;;;34.97;24.83;;;14.00;99.90;;;;;;5034248;28;20040;-81
2022/10/19 08:03:33;;;;;;;32.45;23.85;;;14.00;99.90;;;;;;5033955;28;20025;-81
2022/10/19 08:06:04;;;;;;;29.38;23.52;;;14.00;99.90;;;;;;5033679;28;20033;-82
2022/10/19 08:08:30;;;;;;;28.95;21.77;;;14.10;99.90;;;;;;5033442;28;20382;-81
2022/10/19 08:10:56;;;;;;;30.42;22.73;;;14.10;99.90;;;;;;5033791;28;20040;-81
2022/10/19 08:13:22;;;;;;;29.83;22.67;;;14.10;99.90;;;;;;5032025;28;20315;-81
2022/10/19 08:15:48;;;;;;;26.90;21.30;;;14.20;99.90;;;;;;5033360;28;20021;-81
2022/10/19 08:18:15;;;;;;;33.95;22.75;;;14.20;99.90;;;;;;5033425;28;20051;-81
2022/10/19 08:20:42;;;;;;;30.65;23.58;;;14.30;99.90;;;;;;5033635;28;20143;-81
2022/10/19 08:23:09;;;;;;;28.05;23.00;;;14.30;99.90;;;;;;5033726;28;20057;-82
2022/10/19 08:25:36;;;;;;;36.70;25.77;;;14.30;99.90;;;;;;5033317;28;20061;-81
2022/10/19 08:28:02;;;;;;;33.67;25.27;;;14.30;99.90;;;;;;5031988;28;20022;-84
2022/10/19 08:30:27;;;;;;;32.15;24.17;;;14.30;99.90;;;;;;5033160;28;20071;-85
2022/10/19 08:32:53;;;;;;;31.85;24.33;;;14.30;99.90;;;;;;5033377;28;20092;-85
2022/10/19 08:35:18;;;;;;;32.78;23.38;;;14.40;99.90;;;;;;5031053;28;20026;-85
2022/10/19 08:37:44;;;;;;;30.58;22.15;;;14.40;99.90;;;;;;5033204;28;20542;-85
2022/10/19 08:40:27;;;;;;;27.30;21.50;;;14.40;99.90;;;;;;5032923;28;20064;-85
2022/10/19 08:42:56;;;;;;;30.88;22.98;;;14.50;99.90;;;;;;5033149;28;20047;-84
2022/10/19 08:45:40;;;;;;;28.63;23.33;;;14.60;99.90;;;;;;5032616;28;20036;-85
2022/10/19 08:48:21;;;;;;;27.75;22.30;;;14.70;99.90;;;;;;5018768;28;20063;-85
2022/10/19 08:50:47;;;;;;;28.50;23.45;;;14.70;99.90;;;;;;5033039;28;20026;-85
2022/10/19 08:53:45;;;;;;;30.17;21.00;;;14.80;99.90;;;;;;5032987;28;20466;-84
2022/10/19 08:56:30;;;;;;;29.92;23.00;;;14.80;99.90;;;;;;5027225;28;20049;-82
2022/10/19 08:59:12;;;;;;;33.67;23.35;;;14.90;99.90;;;;;;5024050;28;20418;-81
2022/10/19 09:01:53;;;;;;;33.05;25.35;;;14.80;99.90;;;;;;5031130;28;20105;-82
2022/10/19 09:04:24;;;;;;;31.92;23.30;;;14.80;99.90;;;;;;5031118;28;20053;-81
2022/10/19 09:06:59;;;;;;;33.15;23.17;;;14.80;99.90;;;;;;5035427;28;20097;-81
2022/10/19 09:09:27;;;;;;;32.42;24.70;;;14.80;99.90;;;;;;5035774;28;20021;-81
2022/10/19 09:11:57;;;;;;;32.85;25.05;;;14.80;99.90;;;;;;5033880;28;20048;-82
2022/10/19 09:14:31;;;;;;;98.68;72.72;;;14.80;99.90;;;;;;5035883;28;20489;-81
2022/10/19 09:17:08;;;;;;;31.00;22.63;;;14.80;99.90;;;;;;5034960;28;20164;-81
2022/10/19 09:19:34;;;;;;;27.40;22.27;;;14.90;99.90;;;;;;5035957;28;20025;-81
2022/10/19 09:22:02;;;;;;;27.98;21.70;;;14.90;99.90;;;;;;5032228;28;20451;-81
2022/10/19 09:24:40;;;;;;;29.45;22.15;;;15.00;99.90;;;;;;5035676;28;20025;-82
2022/10/19 09:27:18;;;;;;;28.48;21.27;;;15.00;99.90;;;;;;5035580;28;20021;-81
2022/10/19 09:29:50;;;;;;;26.55;20.73;;;15.00;99.90;;;;;;5035619;28;20075;-81
2022/10/19 09:32:24;;;;;;;29.80;21.70;;;15.10;99.90;;;;;;5035653;28;20032;-81
2022/10/19 09:34:57;;;;;;;25.63;19.87;;;15.10;99.90;;;;;;5030933;28;20398;-82
2022/10/19 09:37:23;;;;;;;22.63;17.17;;;15.10;99.90;;;;;;5033657;28;20454;-81
2022/10/19 09:39:49;;;;;;;24.83;18.52;;;15.20;99.90;;;;;;5035108;28;20558;-82
2022/10/19 09:42:31;;;;;;;25.90;19.00;;;15.20;99.90;;;;;;5028364;28;20022;-82
2022/10/19 09:45:13;;;;;;;22.67;17.85;;;15.30;99.90;;;;;;5033374;28;20018;-81
2022/10/19 09:47:41;;;;;;;24.83;19.00;;;15.20;99.90;;;;;;5035095;28;20022;-82
2022/10/19 09:50:23;;;;;;;26.05;18.92;;;15.30;99.90;;;;;;5035185;28;20029;-82
2022/10/19 09:53:02;;;;;;;25.92;17.33;;;15.20;99.90;;;;;;5032215;28;20017;-81
2022/10/19 09:55:41;;;;;;;23.77;17.85;;;15.20;99.90;;;;;;5034575;28;20022;-81
2022/10/19 09:58:12;;;;;;;22.92;16.48;;;15.20;99.90;;;;;;5034431;28;20091;-82
2022/10/19 10:00:49;;;;;;;23.17;17.02;;;15.30;99.90;;;;;;5032096;28;20124;-82
2022/10/19 10:03:34;;;;;;;21.52;17.35;;;15.30;99.90;;;;;;5034904;28;20097;-81
2022/10/19 10:06:03;;;;;;;;;;;15.30;99.90;;;;;;5028745;28;20025;-81
2022/10/19 10:08:32;;;;;;;19.20;15.25;;;15.20;99.90;;;;;;5032963;28;19909;-82
2022/10/19 10:11:08;;;;;;;19.60;15.38;;;15.30;99.90;;;;;;5033928;28;20026;-82
2022/10/19 10:13:40;;;;;;;23.67;16.65;;;15.30;99.90;;;;;;5034595;28;20100;-82
2022/10/19 10:16:09;;;;;;;19.23;15.20;;;15.30;99.90;;;;;;5032650;28;20021;-82
2022/10/19 10:18:38;;;;;;;19.05;14.93;;;15.40;99.90;;;;;;5034404;28;20355;-81
2022/10/19 10:21:20;;;;;;;18.60;14.88;;;15.40;99.90;;;;;;5033991;28;20076;-82
2022/10/19 10:24:16;;;;;;;22.60;14.98;;;15.50;99.90;;;;;;5034496;28;20083;-81
2022/10/19 10:26:45;;;;;;;19.83;13.27;;;15.50;99.90;;;;;;5033375;28;20389;-82
2022/10/19 10:29:20;;;;;;;18.73;13.63;;;15.60;99.90;;;;;;5034245;28;20021;-82
2022/10/19 10:31:50;;;;;;;19.35;14.25;;;15.70;99.90;;;;;;5033871;28;20108;-81
2022/10/19 10:34:31;;;;;;;17.83;14.38;;;15.80;99.90;;;;;;5033930;28;20101;-81
2022/10/19 10:36:57;;;;;;;23.63;16.08;;;16.00;99.90;;;;;;5029563;28;20584;-82
2022/10/19 10:39:25;;;;;;;21.00;14.32;;;16.10;99.90;;;;;;5033732;28;20128;-82
2022/10/19 10:41:52;;;;;;;20.08;13.82;;;16.10;99.90;;;;;;5031842;28;20021;-82
2022/10/19 10:44:25;;;;;;;19.52;13.02;;;16.10;99.90;;;;;;5033823;28;20047;-82
2022/10/19 10:46:58;;;;;;;15.55;11.85;;;16.20;99.90;;;;;;5032126;28;20033;-82
2022/10/19 10:49:32;;;;;;;15.13;12.85;;;16.20;99.90;;;;;;5033834;28;20025;-82
2022/10/19 10:52:26;;;;;;;18.83;13.23;;;16.30;99.90;;;;;;5034429;28;20463;-81
2022/10/19 10:54:58;;;;;;;15.50;11.80;;;16.30;99.90;;;;;;5027995;28;20621;-82
2022/10/19 10:57:27;;;;;;;14.35;11.70;;;16.20;99.90;;;;;;5029868;28;20028;-82
2022/10/19 11:00:22;;;;;;;14.35;11.55;;;16.20;99.90;;;;;;5031834;28;20048;-82
2022/10/19 11:03:03;;;;;;;14.30;11.40;;;16.30;99.90;;;;;;5031158;28;20018;-82
2022/10/19 11:05:39;;;;;;;15.80;10.90;;;16.30;99.90;;;;;;5025717;28;20025;-82
2022/10/19 11:08:29;;;;;;;18.90;10.30;;;16.30;99.90;;;;;;5032914;28;20116;-82
2022/10/19 11:11:00;;;;;;;9.85;7.60;;;16.30;99.90;;;;;;5023934;28;20387;-82
2022/10/19 11:13:52;;;;;;;9.32;7.40;;;16.40;99.90;;;;;;5028230;28;20025;-82
2022/10/19 11:16:24;;;;;;;10.55;6.88;;;16.40;99.90;;;;;;5032208;28;20028;-82
2022/10/19 11:18:55;;;;;;;11.18;7.30;;;16.40;99.90;;;;;;5033464;28;20096;-82
2022/10/19 11:21:27;;;;;;;9.05;8.15;;;16.40;99.90;;;;;;5033722;28;20033;-83
2022/10/19 11:24:24;;;;;;;9.60;7.93;;;16.50;99.90;;;;;;5034144;28;20025;-82
2022/10/19 11:27:05;;;;;;;11.50;7.45;;;16.50;99.90;;;;;;5020691;28;20478;-82
2022/10/19 11:29:57;;;;;;;8.02;6.97;;;16.40;99.90;;;;;;5033882;28;20033;-82
2022/10/19 11:32:38;;;;;;;7.22;6.30;;;16.40;99.90;;;;;;5033599;28;20069;-82
2022/10/19 11:35:26;;;;;;;6.85;5.55;;;16.30;99.90;;;;;;5034146;28;20060;-82
2022/10/19 11:37:58;;;;;;;6.95;5.80;;;16.30;99.90;;;;;;5023323;28;20044;-82
2022/10/19 11:40:39;;;;;;;9.60;5.90;;;16.20;99.90;;;;;;5033664;28;20057;-82
2022/10/19 11:43:19;;;;;;;6.93;5.88;;;16.20;99.90;;;;;;5034021;28;20032;-82
2022/10/19 11:46:03;;;;;;;6.78;5.20;;;16.20;99.90;;;;;;5034203;28;20025;-82
2022/10/19 11:48:53;;;;;;;9.20;5.60;;;16.20;99.90;;;;;;5034337;28;20076;-83
2022/10/19 11:51:31;;;;;;;7.63;5.80;;;16.20;99.90;;;;;;5033768;28;20378;-82
2022/10/19 11:54:04;;;;;;;9.07;6.05;;;16.30;99.90;;;;;;5034193;28;20021;-82
2022/10/19 11:56:56;;;;;;;6.30;5.18;;;16.30;99.90;;;;;;5033742;28;20128;-82
2022/10/19 11:59:41;;;;;;;5.22;4.72;;;16.30;99.90;;;;;;5033504;28;20453;-82
2022/10/19 12:02:40;;;;;;;6.55;4.18;;;16.40;99.90;;;;;;5033914;28;20025;-82
2022/10/19 12:05:23;;;;;;;5.85;4.80;;;16.40;99.90;;;;;;5017650;28;20100;-82
2022/10/19 12:08:03;;;;;;;6.22;5.00;;;16.50;99.90;;;;;;5033454;28;20022;-82
2022/10/19 12:10:41;;;;;;;6.97;5.22;;;16.50;99.90;;;;;;5033987;28;20032;-83
2022/10/19 12:13:19;;;;;;;4.82;4.20;;;16.50;99.90;;;;;;5034055;28;20025;-82
2022/10/19 12:15:52;;;;;;;5.63;4.57;;;16.50;99.90;;;;;;5033602;28;20470;-82
2022/10/19 12:18:39;;;;;;;5.88;4.55;;;16.60;99.90;;;;;;5033247;28;20049;-82
2022/10/19 12:21:28;;;;;;;5.15;4.53;;;16.60;99.90;;;;;;5033532;28;20021;-83
2022/10/19 12:24:00;;;;;;;5.72;4.43;;;16.70;99.90;;;;;;5033543;28;20021;-83
2022/10/19 12:26:29;;;;;;;6.68;4.75;;;16.70;99.90;;;;;;5033089;28;20017;-82
2022/10/19 12:28:58;;;;;;;7.05;4.57;;;16.70;99.90;;;;;;5023288;28;20028;-82
2022/10/19 12:31:25;;;;;;;6.90;4.53;;;16.70;99.90;;;;;;5033324;28;20108;-83
2022/10/19 12:33:56;;;;;;;7.63;4.05;;;16.60;99.90;;;;;;5033500;28;20037;-83
2022/10/19 12:36:45;;;;;;;6.82;4.28;;;16.60;99.90;;;;;;5033298;28;20068;-83
2022/10/19 12:39:11;;;;;;;7.32;5.10;;;16.60;99.90;;;;;;5031196;28;20053;-83
2022/10/19 12:41:58;;;;;;;7.38;4.57;;;16.50;99.90;;;;;;5033241;28;20471;-83
2022/10/19 12:45:05;;;;;;;7.47;4.75;;;16.50;99.90;;;;;;5032806;28;20447;-83
2022/10/19 12:47:31;;;;;;;9.52;5.80;;;16.50;99.90;;;;;;5027274;28;20029;-83
2022/10/19 12:50:39;;;;;;;11.77;5.15;;;16.40;99.90;;;;;;5033192;28;20404;-83
2022/10/19 12:53:05;;;;;;;6.20;4.90;;;16.40;99.90;;;;;;5032828;28;20374;-83
2022/10/19 12:55:33;;;;;;;6.43;4.68;;;16.50;99.90;;;;;;5033074;28;20055;-83